Skip to main content.
Our real time weather data display below is updated continuously via our 24/7 live data feed.
 TIME   TEMPERATURE   WINDSPEED   DIRECTION   HUMIDITY   BAROMETER   RAINFALL 
6:15 23.1°C (73.6°F) 5.6 kmh (3.5 mph) SW 78% 1012.5hPa (29.90 inHg) 0.0mm (0.00 in.)
5:15 23.6°C (74.5 °F) 3.7 kmh (2.3 mph) SW 77% 1012.6hPa (29.90 inHg) 0.0mm (0.00 in.)
4:15 23.8°C (74.8 °F) 11.1 kmh (6.9 mph) SW 75% 1012.7hPa (29.91 inHg) 0.0mm (0.00 in.)
3:15 24.2°C (75.6 °F) 14.8 kmh (9.2 mph) WSW 75% 1012.8hPa (29.91 inHg) 0.0mm (0.00 in.)
2:15 23.9°C (75.0 °F) 5.6 kmh (3.5 mph) SW 75% 1013.2hPa (29.92 inHg) 0.0mm (0.00 in.)
1:15 23.8°C (74.8 °F) 16.7 kmh (10.4 mph) SW 75% 1013.3hPa (29.92 inHg) 0.0mm (0.00 in.)
12:15 24.2°C (75.6 °F) 5.6 kmh (3.5 mph) SW 73% 1013.3hPa (29.92 inHg) 0.0mm (0.00 in.)
11:15 22.7°C (72.9 °F) 14.8 kmh (9.2 mph) SSW 80% 1013.5hPa (29.93 inHg) 0.0mm (0.00 in.)
10:15 22.1°C (71.8 °F) 13.0 kmh (8.1 mph) SSW 81% 1013.5hPa (29.93 inHg) 0.0mm (0.00 in.)
9:15 21.9°C (71.4 °F) 9.3 kmh (5.8 mph) SW 79% 1013.6hPa (29.93 inHg) 0.0mm (0.00 in.)
8:15 20.5°C (68.9 °F) 0.0 kmh (0.0 mph) W 91% 1013.6hPa (29.93 inHg) 0.0mm (0.00 in.)
7:15 19.3°C (66.7 °F) 0.0 kmh (0.0 mph) WNW 96% 1013.5hPa (29.93 inHg) 0.0mm (0.00 in.)
6:15 18.2°C (64.8 °F) 0.0 kmh (0.0 mph) WNW 97% 1013.1hPa (29.92 inHg) 0.0mm (0.00 in.)
5:15 18.4°C (65.1 °F) 0.0 kmh (0.0 mph) WNW 96% 1013.0hPa (29.91 inHg) 0.0mm (0.00 in.)
4:15 18.3°C (64.9 °F) 0.0 kmh (0.0 mph) WNW 95% 1013.0hPa (29.91 inHg) 0.0mm (0.00 in.)
3:15 18.3°C (64.9 °F) 0.0 kmh (0.0 mph) WNW 94% 1013.2hPa (29.92 inHg) 0.0mm (0.00 in.)
2:15 18.5°C (65.3 °F) 0.0 kmh (0.0 mph) NNW 88% 1013.6hPa (29.93 inHg) 0.0mm (0.00 in.)
1:15 18.5°C (65.3 °F) 0.0 kmh (0.0 mph) NNW 89% 1014.0hPa (29.94 inHg) 0.0mm (0.00 in.)
12:15 19.1°C (66.4 °F) 0.0 kmh (0.0 mph) NNW 88% 1014.5hPa (29.96 inHg) 0.0mm (0.00 in.)
11:15 19.7°C (67.5 °F) 0.0 kmh (0.0 mph) N 79% 1014.6hPa (29.96 inHg) 0.0mm (0.00 in.)
10:01 19.4°C (66.9 °F) 1.9 kmh (1.2 mph) N 81% 1014.3hPa (29.95 inHg) 0.0mm (0.00 in.)
9:01 19.3°C (66.7 °F) 3.7 kmh (2.3 mph) N 90% 1014.2hPa (29.95 inHg) 0.0mm (0.00 in.)
8:01 20.2°C (68.4 °F) 0.0 kmh (0.0 mph) N 88% 1014.1hPa (29.95 inHg) 0.0mm (0.00 in.)
7:01 21.0°C (69.8 °F) 14.8 kmh (9.2 mph) N 79% 1013.8hPa (29.94 inHg) 0.0mm (0.00 in.)